createdAt,value
2023-03-16T00:02:03.487Z,100907.69
2023-03-16T00:04:31.331Z,100907.56
2023-03-16T00:06:58.647Z,100905.53
2023-03-16T00:09:31.042Z,100908.28
2023-03-16T00:11:58.988Z,100909.34
2023-03-16T00:14:26.686Z,100905.91
2023-03-16T00:16:53.956Z,100915.28
2023-03-16T00:19:22.887Z,100905.66
2023-03-16T00:21:51.171Z,100911.25
2023-03-16T00:24:19.014Z,100905.88
2023-03-16T00:26:48.052Z,100905.94
2023-03-16T00:29:15.673Z,100912.75
2023-03-16T00:31:43.965Z,100907.56
2023-03-16T00:34:11.544Z,100914.06
2023-03-16T00:36:39.112Z,100908.88
2023-03-16T00:39:06.850Z,100916.03
2023-03-16T00:41:37.809Z,100921.13
2023-03-16T00:44:06.483Z,100911.44
2023-03-16T00:46:33.949Z,100922.78
2023-03-16T00:49:02.633Z,100926.44
2023-03-16T00:51:30.432Z,100930.06
2023-03-16T00:53:57.703Z,100921.91
2023-03-16T00:56:24.952Z,100927.13
2023-03-16T00:58:57.510Z,100928.84
2023-03-16T01:01:27.378Z,100929.03
2023-03-16T01:03:55.364Z,100925.59
2023-03-16T01:06:22.662Z,100924.72
2023-03-16T01:08:49.979Z,100928.03
2023-03-16T01:11:18.763Z,100931.53
2023-03-16T01:13:47.891Z,100942.09
2023-03-16T01:16:15.682Z,100942.25
2023-03-16T01:18:44.429Z,100941.41
2023-03-16T01:21:13.691Z,100946.75
2023-03-16T01:23:42.068Z,100955.63
2023-03-16T01:26:09.343Z,100957.19
2023-03-16T01:28:36.778Z,100967.81
2023-03-16T01:31:06.532Z,100962.56
2023-03-16T01:33:34.515Z,100963.63
2023-03-16T01:36:04.524Z,100970.75
2023-03-16T01:38:32.032Z,100968.16
2023-03-16T01:40:59.290Z,100977.63
2023-03-16T01:43:28.204Z,100966.22
2023-03-16T01:46:22.789Z,100957.28
2023-03-16T01:48:52.902Z,100963.56
2023-03-16T01:51:24.127Z,100963.75
2023-03-16T01:53:53.728Z,100962.78
2023-03-16T01:56:24.480Z,100965.50
2023-03-16T01:58:53.467Z,100969.09
2023-03-16T02:01:20.885Z,100970.72
2023-03-16T02:03:48.285Z,100969.81
2023-03-16T02:06:18.055Z,100962.78
2023-03-16T02:08:48.649Z,100962.63
2023-03-16T02:11:17.957Z,100964.41
2023-03-16T02:13:45.779Z,100969.72
2023-03-16T02:16:14.319Z,100968.00
2023-03-16T02:18:41.674Z,100965.31
2023-03-16T02:21:16.200Z,100967.13
2023-03-16T02:23:44.231Z,100966.38
2023-03-16T02:26:15.527Z,100968.22
2023-03-16T02:28:48.495Z,100968.22
2023-03-16T02:31:17.993Z,100970.88
2023-03-16T02:33:45.755Z,100963.84
2023-03-16T02:36:14.825Z,100970.00
2023-03-16T02:38:42.590Z,100970.09
2023-03-16T02:41:12.547Z,100970.88
2023-03-16T02:43:42.651Z,100970.09
2023-03-16T02:46:10.854Z,100978.81
2023-03-16T02:48:43.804Z,100975.22
2023-03-16T02:51:11.304Z,100968.31
2023-03-16T02:53:39.003Z,100972.72
2023-03-16T02:56:06.518Z,100974.50
2023-03-16T02:58:33.844Z,100975.44
2023-03-16T03:01:01.559Z,100972.03
2023-03-16T03:03:28.863Z,100983.28
2023-03-16T03:05:57.483Z,100982.34
2023-03-16T03:08:24.751Z,100980.53
2023-03-16T03:10:52.022Z,100973.53
2023-03-16T03:13:19.265Z,100982.31
2023-03-16T03:15:46.866Z,100979.72
2023-03-16T03:18:14.497Z,100987.59
2023-03-16T03:20:41.852Z,100982.38
2023-03-16T03:23:10.438Z,100985.75
2023-03-16T03:25:37.782Z,100984.88
2023-03-16T03:28:05.850Z,100986.50
2023-03-16T03:30:33.564Z,100989.31
2023-03-16T03:33:01.466Z,100989.16
2023-03-16T03:35:28.824Z,100991.91
2023-03-16T03:37:56.130Z,100997.03
2023-03-16T03:40:24.740Z,100996.09
2023-03-16T03:42:52.296Z,100999.69
2023-03-16T03:45:19.682Z,101000.50
2023-03-16T03:47:47.242Z,101005.03
2023-03-16T03:50:14.651Z,101004.97
2023-03-16T03:52:42.227Z,101003.25
2023-03-16T03:55:10.148Z,100999.78
2023-03-16T03:57:38.755Z,100999.78
2023-03-16T04:00:09.663Z,101003.19
2023-03-16T04:02:37.020Z,101007.63
2023-03-16T04:05:04.553Z,101007.75
2023-03-16T04:07:31.914Z,100996.38
2023-03-16T04:09:59.207Z,101002.56
2023-03-16T04:12:26.477Z,101002.56
2023-03-16T04:14:55.066Z,100999.91
2023-03-16T04:17:23.716Z,101003.59
2023-03-16T04:19:51.912Z,101004.41
2023-03-16T04:22:19.235Z,101005.25
2023-03-16T04:24:47.061Z,101001.88
2023-03-16T04:27:14.304Z,101002.69
2023-03-16T04:29:41.592Z,101002.66
2023-03-16T04:32:11.359Z,101004.38
2023-03-16T04:34:41.681Z,101007.00
2023-03-16T04:37:09.077Z,101000.84
2023-03-16T04:39:36.354Z,101002.53
2023-03-16T04:42:03.628Z,101000.91
2023-03-16T04:44:31.009Z,100997.47
2023-03-16T04:46:59.604Z,100995.75
2023-03-16T04:49:28.176Z,100994.78
2023-03-16T04:51:55.471Z,100990.47
2023-03-16T04:54:22.730Z,100993.25
2023-03-16T04:56:50.049Z,100991.38
2023-03-16T04:59:17.353Z,101001.88
2023-03-16T05:01:44.679Z,101008.97
2023-03-16T05:04:18.901Z,100999.28
2023-03-16T05:06:48.261Z,100996.66
2023-03-16T05:09:15.681Z,100991.53
2023-03-16T05:11:42.974Z,100997.59
2023-03-16T05:14:10.251Z,101004.59
2023-03-16T05:16:37.517Z,101009.84
2023-03-16T05:19:05.321Z,101008.97
2023-03-16T05:21:34.096Z,101010.69
2023-03-16T05:24:02.694Z,101008.94
2023-03-16T05:26:29.959Z,101006.25
2023-03-16T05:28:58.196Z,101010.66
2023-03-16T05:31:26.708Z,101011.53
2023-03-16T05:33:54.344Z,101019.38
2023-03-16T05:36:21.656Z,101013.28
2023-03-16T05:38:48.993Z,101017.72
2023-03-16T05:41:18.277Z,101022.03
2023-03-16T05:43:45.641Z,101020.19
2023-03-16T05:46:13.658Z,101022.75
2023-03-16T05:48:40.945Z,101020.91
2023-03-16T05:51:08.216Z,101025.22
2023-03-16T05:53:35.517Z,101031.31
2023-03-16T05:56:03.009Z,101032.16
2023-03-16T05:58:34.092Z,101026.63
2023-03-16T06:01:02.220Z,101026.44
2023-03-16T06:03:29.760Z,101025.34
2023-03-16T06:05:57.032Z,101021.56
2023-03-16T06:08:24.331Z,101025.72
2023-03-16T06:10:51.694Z,101020.13
2023-03-16T06:13:19.493Z,101024.47
2023-03-16T06:15:48.114Z,101026.38
2023-03-16T06:18:15.436Z,101034.44
2023-03-16T06:20:42.837Z,101032.66
2023-03-16T06:23:10.210Z,101035.28
2023-03-16T06:25:40.224Z,101030.59
2023-03-16T06:28:08.544Z,101030.47
2023-03-16T06:30:35.865Z,101035.50
2023-03-16T06:33:04.560Z,101038.13
2023-03-16T06:35:31.960Z,101035.50
2023-03-16T06:37:59.233Z,101030.88
2023-03-16T06:40:27.192Z,101043.13
2023-03-16T06:42:54.632Z,101034.22
2023-03-16T06:45:22.218Z,101043.69
2023-03-16T06:47:49.538Z,101038.09
2023-03-16T06:50:18.275Z,101041.53
2023-03-16T06:52:45.537Z,101039.66
2023-03-16T06:55:14.375Z,101041.16
2023-03-16T06:57:42.865Z,101043.66
2023-03-16T07:00:11.230Z,101037.28
2023-03-16T07:02:40.447Z,101048.56
2023-03-16T07:05:08.335Z,101043.06
2023-03-16T07:07:37.001Z,101043.78
2023-03-16T07:10:04.491Z,101046.91
2023-03-16T07:12:31.771Z,101049.19
2023-03-16T07:14:59.076Z,101043.59
2023-03-16T07:17:26.348Z,101042.53
2023-03-16T07:19:53.648Z,101052.06
2023-03-16T07:22:21.962Z,101043.06
2023-03-16T07:24:55.998Z,101053.03
2023-03-16T07:27:23.710Z,101052.47
2023-03-16T07:29:51.955Z,101052.94
2023-03-16T07:32:19.571Z,101063.31
2023-03-16T07:34:46.850Z,101055.38
2023-03-16T07:37:14.411Z,101062.88
2023-03-16T07:39:41.929Z,101058.78
2023-03-16T07:42:10.759Z,101053.03
2023-03-16T07:44:38.054Z,101040.63
2023-03-16T07:47:07.049Z,101035.63
2023-03-16T07:49:34.371Z,101039.38
2023-03-16T07:52:01.657Z,101038.91
2023-03-16T07:54:28.917Z,101034.94
2023-03-16T07:56:56.204Z,101037.16
2023-03-16T07:59:24.775Z,101043.38
2023-03-16T08:01:52.173Z,101045.09
2023-03-16T08:04:19.444Z,101044.03
2023-03-16T08:06:47.782Z,101050.19
2023-03-16T08:09:15.254Z,101051.63
2023-03-16T08:11:42.744Z,101042.69
2023-03-16T08:14:10.051Z,101045.41
2023-03-16T08:16:38.652Z,101048.66
2023-03-16T08:19:05.935Z,101040.31
2023-03-16T08:21:35.092Z,101043.94
2023-03-16T08:24:06.388Z,101046.25
2023-03-16T08:26:33.657Z,101043.09
2023-03-16T08:29:03.259Z,101051.19
2023-03-16T08:31:34.909Z,101036.47
2023-03-16T08:34:03.929Z,101049.88
2023-03-16T08:36:31.249Z,101056.19
2023-03-16T08:39:06.951Z,101052.22
2023-03-16T08:41:34.862Z,101044.41
2023-03-16T08:44:03.095Z,101044.59
2023-03-16T08:46:30.718Z,101048.22
2023-03-16T08:48:58.017Z,101045.22
2023-03-16T08:51:27.306Z,101053.53
2023-03-16T08:53:55.324Z,101049.03
2023-03-16T08:56:22.892Z,101049.00
2023-03-16T08:58:51.643Z,101044.13
2023-03-16T09:01:19.608Z,101054.94
2023-03-16T09:03:46.961Z,101047.13
2023-03-16T09:06:15.085Z,101054.34
2023-03-16T09:08:45.304Z,101049.25
2023-03-16T09:11:14.210Z,101054.38
2023-03-16T09:13:42.604Z,101046.22
2023-03-16T09:16:11.963Z,101047.00
2023-03-16T09:18:39.882Z,101056.63
2023-03-16T09:21:07.972Z,101047.09
2023-03-16T09:23:37.487Z,101051.16
2023-03-16T09:26:07.405Z,101057.47
2023-03-16T09:28:35.932Z,101054.69
2023-03-16T09:31:04.035Z,101051.47
2023-03-16T09:33:32.235Z,101048.31
2023-03-16T09:35:59.560Z,101045.84
2023-03-16T09:38:27.615Z,101057.22
2023-03-16T09:40:58.916Z,101056.19
2023-03-16T09:43:34.150Z,101048.00
2023-03-16T09:46:07.663Z,101056.09
2023-03-16T09:48:36.529Z,101045.50
2023-03-16T09:51:05.934Z,101041.91
2023-03-16T09:53:35.224Z,101045.16
2023-03-16T09:56:04.304Z,101040.03
2023-03-16T09:58:33.170Z,101030.13
2023-03-16T10:01:04.949Z,101046.63
2023-03-16T10:03:38.204Z,101040.91
2023-03-16T10:06:06.759Z,101036.81
2023-03-16T10:08:38.189Z,101024.97
2023-03-16T10:11:21.150Z,101039.31
2023-03-16T10:13:53.543Z,101031.63
2023-03-16T10:16:23.317Z,101031.75
2023-03-16T10:18:52.223Z,101034.59
2023-03-16T10:21:19.961Z,101037.91
2023-03-16T10:23:48.518Z,101031.03
2023-03-16T10:26:19.342Z,101027.28
2023-03-16T10:28:46.723Z,101029.72
2023-03-16T10:31:17.490Z,101030.31
2023-03-16T10:33:45.453Z,101031.81
2023-03-16T10:36:16.978Z,101030.66
2023-03-16T10:38:46.733Z,101031.03
2023-03-16T10:41:22.311Z,101019.81
2023-03-16T10:43:51.863Z,101028.31
2023-03-16T10:46:20.843Z,101029.22
2023-03-16T10:48:59.546Z,101026.84
2023-03-16T10:51:27.963Z,101025.44
2023-03-16T10:53:57.871Z,101022.56
2023-03-16T10:56:26.079Z,101018.47
2023-03-16T10:58:53.333Z,101011.25
2023-03-16T11:01:26.790Z,101010.47
2023-03-16T11:03:55.600Z,101002.34
2023-03-16T11:06:25.846Z,100996.44
2023-03-16T11:08:53.977Z,100995.59
2023-03-16T11:11:25.872Z,101001.69
2023-03-16T11:13:56.272Z,100986.00
2023-03-16T11:16:29.157Z,100984.44
2023-03-16T11:18:58.292Z,100986.25
2023-03-16T11:21:32.012Z,100979.25
2023-03-16T11:23:59.658Z,100974.78
2023-03-16T11:26:32.405Z,100978.72
2023-03-16T11:29:02.492Z,100967.41
2023-03-16T11:31:40.352Z,100961.00
2023-03-16T11:34:14.518Z,100968.78
2023-03-16T11:36:45.719Z,100964.47
2023-03-16T11:39:19.236Z,100966.38
2023-03-16T11:41:53.527Z,100958.34
2023-03-16T11:44:24.603Z,100953.81
2023-03-16T11:46:57.992Z,100949.16
2023-03-16T11:49:38.223Z,100963.53
2023-03-16T11:52:10.191Z,100960.59
2023-03-16T11:54:43.717Z,100947.59
2023-03-16T11:57:28.996Z,100944.66
2023-03-16T12:00:02.293Z,100949.97
2023-03-16T12:02:45.150Z,100935.97
2023-03-16T12:05:24.120Z,100944.28
2023-03-16T12:07:56.719Z,100940.28
2023-03-16T12:10:26.557Z,100938.91
2023-03-16T12:13:10.392Z,100934.13
2023-03-16T12:15:41.891Z,100939.75
2023-03-16T12:18:15.227Z,100934.47
2023-03-16T12:20:45.687Z,100929.97
2023-03-16T12:23:14.722Z,100920.16
2023-03-16T12:25:45.929Z,100919.25
2023-03-16T12:28:17.414Z,100914.94
2023-03-16T12:30:51.066Z,100915.47
2023-03-16T12:33:25.334Z,100915.13
2023-03-16T12:35:56.604Z,100913.09
2023-03-16T12:38:30.719Z,100900.66
2023-03-16T12:41:03.682Z,100902.06
2023-03-16T12:43:38.424Z,100901.28
2023-03-16T12:46:08.083Z,100901.72
2023-03-16T12:48:39.026Z,100899.34
2023-03-16T12:51:06.686Z,100893.72
2023-03-16T12:53:45.334Z,100905.56
2023-03-16T12:56:15.170Z,100885.72
2023-03-16T12:58:45.360Z,100891.00
2023-03-16T13:01:15.231Z,100892.38
2023-03-16T13:03:44.678Z,100887.47
2023-03-16T13:06:19.118Z,100887.28
2023-03-16T13:08:48.851Z,100880.28
2023-03-16T13:11:16.307Z,100876.91
2023-03-16T13:13:50.636Z,100876.91
2023-03-16T13:16:24.713Z,100881.47
2023-03-16T13:18:53.379Z,100876.75
2023-03-16T13:21:22.866Z,100870.09
2023-03-16T13:23:54.718Z,100871.66
2023-03-16T13:26:32.369Z,100862.66
2023-03-16T13:28:59.703Z,100864.75
2023-03-16T13:31:29.842Z,100860.41
2023-03-16T13:34:00.093Z,100858.09
2023-03-16T13:36:28.928Z,100857.13
2023-03-16T13:38:57.314Z,100868.97
2023-03-16T13:41:24.833Z,100860.84
2023-03-16T13:43:52.194Z,100859.56
2023-03-16T13:46:20.532Z,100859.13
2023-03-16T13:48:48.553Z,100855.84
2023-03-16T13:51:18.606Z,100856.53
2023-03-16T13:53:46.010Z,100856.84
2023-03-16T13:56:14.653Z,100852.19
2023-03-16T13:58:44.743Z,100851.16
2023-03-16T14:01:16.047Z,100846.16
2023-03-16T14:03:43.484Z,100839.06
2023-03-16T14:06:22.304Z,100830.25
2023-03-16T14:08:51.631Z,100839.91
2023-03-16T14:11:18.978Z,100830.75
2023-03-16T14:13:51.154Z,100826.66
2023-03-16T14:16:19.871Z,100830.44
2023-03-16T14:18:48.400Z,100827.16
2023-03-16T14:21:17.655Z,100830.28
2023-03-16T14:23:47.275Z,100818.00
2023-03-16T14:26:15.987Z,100818.09
2023-03-16T14:28:54.425Z,100819.75
2023-03-16T14:31:22.801Z,100819.03
2023-03-16T14:34:00.361Z,100817.13
2023-03-16T14:36:35.300Z,100818.00
2023-03-16T14:39:11.988Z,100811.50
2023-03-16T14:41:39.864Z,100820.41
2023-03-16T14:44:07.264Z,100824.66
2023-03-16T14:46:36.036Z,100822.41
2023-03-16T14:49:07.736Z,100816.28
2023-03-16T14:51:36.465Z,100821.28
2023-03-16T14:54:03.773Z,100818.00
2023-03-16T14:56:36.560Z,100817.41
2023-03-16T14:59:03.811Z,100821.38
2023-03-16T15:01:31.312Z,100824.41
2023-03-16T15:03:58.589Z,100825.63
2023-03-16T15:06:26.429Z,100817.34
2023-03-16T15:08:54.674Z,100817.88
2023-03-16T15:11:24.450Z,100819.91
2023-03-16T15:14:04.131Z,100813.81
2023-03-16T15:16:31.830Z,100803.69
2023-03-16T15:18:59.165Z,100807.81
2023-03-16T15:21:29.526Z,100803.69
2023-03-16T15:23:58.529Z,100804.28
2023-03-16T15:26:27.721Z,100810.50
2023-03-16T15:28:57.173Z,100795.66
2023-03-16T15:31:24.731Z,100810.25
2023-03-16T15:33:52.224Z,100804.63
2023-03-16T15:36:20.868Z,100794.81
2023-03-16T15:38:49.221Z,100808.59
2023-03-16T15:41:17.059Z,100802.47
2023-03-16T15:43:47.170Z,100808.28
2023-03-16T15:46:16.533Z,100814.22
2023-03-16T15:48:44.445Z,100815.25
2023-03-16T15:51:17.835Z,100806.69
2023-03-16T15:53:49.746Z,100799.19
2023-03-16T15:56:19.380Z,100785.34
2023-03-16T15:58:47.620Z,100790.28
2023-03-16T16:01:21.274Z,100779.22
2023-03-16T16:03:48.695Z,100778.69
2023-03-16T16:06:16.500Z,100774.22
2023-03-16T16:08:43.760Z,100775.50
2023-03-16T16:11:14.198Z,100786.69
2023-03-16T16:13:44.997Z,100786.03
2023-03-16T16:16:13.301Z,100795.94
2023-03-16T16:18:42.307Z,100798.44
2023-03-16T16:21:15.347Z,100801.47
2023-03-16T16:23:42.842Z,100801.38
2023-03-16T16:26:17.795Z,100799.91
2023-03-16T16:28:45.183Z,100799.75
2023-03-16T16:31:13.685Z,100814.44
2023-03-16T16:33:42.287Z,100817.16
2023-03-16T16:36:14.302Z,100823.47
2023-03-16T16:38:41.597Z,100824.84
2023-03-16T16:41:09.511Z,100832.38
2023-03-16T16:43:38.621Z,100818.94
2023-03-16T16:46:07.025Z,100815.56
2023-03-16T16:48:36.683Z,100820.53
2023-03-16T16:51:07.046Z,100817.13
2023-03-16T16:53:34.373Z,100815.88
2023-03-16T16:56:02.115Z,100808.94
2023-03-16T16:58:29.439Z,100814.88
2023-03-16T17:00:58.103Z,100812.34
2023-03-16T17:03:27.026Z,100803.63
2023-03-16T17:05:55.059Z,100799.44
2023-03-16T17:08:24.187Z,100793.47
2023-03-16T17:10:52.164Z,100801.91
2023-03-16T17:13:27.209Z,100800.91
2023-03-16T17:15:54.931Z,100805.22
2023-03-16T17:18:22.928Z,100805.19
2023-03-16T17:20:50.702Z,100801.03
2023-03-16T17:23:24.830Z,100798.25
2023-03-16T17:25:53.708Z,100794.41
2023-03-16T17:28:21.242Z,100793.47
2023-03-16T17:30:49.062Z,100795.84
2023-03-16T17:33:17.297Z,100796.00
2023-03-16T17:35:45.010Z,100804.84
2023-03-16T17:38:18.038Z,100802.09
2023-03-16T17:40:47.452Z,100803.84
2023-03-16T17:43:17.026Z,100810.09
2023-03-16T17:45:45.336Z,100805.72
2023-03-16T17:48:13.634Z,100804.97
2023-03-16T17:50:41.482Z,100797.06
2023-03-16T17:53:08.840Z,100794.53
2023-03-16T17:55:36.187Z,100782.47
2023-03-16T17:58:03.475Z,100785.28
2023-03-16T18:00:32.921Z,100782.78
2023-03-16T18:03:04.108Z,100777.34
2023-03-16T18:05:32.571Z,100775.09
2023-03-16T18:08:01.708Z,100777.31
2023-03-16T18:10:30.208Z,100776.38
2023-03-16T18:13:00.656Z,100778.75
2023-03-16T18:15:30.328Z,100770.56
2023-03-16T18:18:00.267Z,100785.84
2023-03-16T18:20:30.853Z,100771.56
2023-03-16T18:22:59.110Z,100761.06
2023-03-16T18:25:31.511Z,100768.13
2023-03-16T18:27:59.032Z,100755.66
2023-03-16T18:30:27.098Z,100755.38
2023-03-16T18:32:55.145Z,100755.59
2023-03-16T18:35:23.942Z,100752.06
2023-03-16T18:37:53.133Z,100747.44
2023-03-16T18:40:20.904Z,100743.22
2023-03-16T18:42:48.632Z,100741.47
2023-03-16T18:45:16.745Z,100752.66
2023-03-16T18:47:47.884Z,100756.19
2023-03-16T18:50:23.644Z,100750.00
2023-03-16T18:52:52.878Z,100757.13
2023-03-16T18:55:21.532Z,100743.50
2023-03-16T18:57:51.442Z,100743.28
2023-03-16T19:00:20.215Z,100739.91
2023-03-16T19:02:49.287Z,100730.19
2023-03-16T19:05:18.529Z,100735.66
2023-03-16T19:07:47.502Z,100738.13
2023-03-16T19:10:22.005Z,100733.63
2023-03-16T19:12:49.419Z,100731.13
2023-03-16T19:15:19.687Z,100741.69
2023-03-16T19:17:47.455Z,100734.91
2023-03-16T19:20:15.480Z,100743.44
2023-03-16T19:22:44.000Z,100741.63
2023-03-16T19:25:17.246Z,100730.06
2023-03-16T19:27:46.655Z,100728.38
2023-03-16T19:30:25.070Z,100724.00
2023-03-16T19:32:53.057Z,100722.53
2023-03-16T19:35:21.712Z,100727.34
2023-03-16T19:37:49.017Z,100724.19
2023-03-16T19:40:17.835Z,100720.56
2023-03-16T19:42:47.260Z,100719.13
2023-03-16T19:45:23.802Z,100725.88
2023-03-16T19:47:52.523Z,100719.72
2023-03-16T19:50:20.845Z,100720.75
2023-03-16T19:52:48.494Z,100706.41
2023-03-16T19:55:20.834Z,100715.41
2023-03-16T19:57:50.797Z,100714.53
2023-03-16T20:00:20.108Z,100715.06
2023-03-16T20:02:49.370Z,100722.25
2023-03-16T20:05:18.049Z,100725.94
2023-03-16T20:07:45.573Z,100721.75
2023-03-16T20:10:17.035Z,100724.59
2023-03-16T20:12:44.558Z,100725.75
2023-03-16T20:15:16.739Z,100724.94
2023-03-16T20:17:44.424Z,100725.94
2023-03-16T20:20:18.921Z,100727.59
2023-03-16T20:22:46.420Z,100717.03
2023-03-16T20:25:14.041Z,100706.94
2023-03-16T20:27:42.224Z,100707.00
2023-03-16T20:30:17.413Z,100710.50
2023-03-16T20:32:45.740Z,100722.97
2023-03-16T20:35:21.173Z,100719.44
2023-03-16T20:37:48.594Z,100714.94
2023-03-16T20:40:16.160Z,100712.56
2023-03-16T20:42:44.254Z,100706.63
2023-03-16T20:45:20.863Z,100704.03
2023-03-16T20:47:48.870Z,100711.97
2023-03-16T20:50:23.615Z,100703.47
2023-03-16T20:52:51.553Z,100704.59
2023-03-16T20:55:20.158Z,100703.84
2023-03-16T20:57:48.685Z,100701.97
2023-03-16T21:00:23.670Z,100702.88
2023-03-16T21:02:50.947Z,100698.66
2023-03-16T21:05:18.633Z,100690.31
2023-03-16T21:07:46.113Z,100697.00
2023-03-16T21:10:17.355Z,100688.47
2023-03-16T21:12:46.080Z,100688.41
2023-03-16T21:15:17.892Z,100687.00
2023-03-16T21:17:46.678Z,100677.91
2023-03-16T21:20:15.912Z,100678.22
2023-03-16T21:22:43.478Z,100675.44
2023-03-16T21:25:18.145Z,100675.16
2023-03-16T21:27:46.161Z,100670.94
2023-03-16T21:30:19.247Z,100679.97
2023-03-16T21:32:47.952Z,100672.41
2023-03-16T21:35:15.692Z,100666.78
2023-03-16T21:37:43.173Z,100672.38
2023-03-16T21:40:15.976Z,100663.59
2023-03-16T21:42:43.361Z,100664.19
2023-03-16T21:45:11.147Z,100658.06
2023-03-16T21:47:38.771Z,100671.81
2023-03-16T21:50:13.532Z,100672.38
2023-03-16T21:52:42.509Z,100669.19
2023-03-16T21:55:23.041Z,100670.91
2023-03-16T21:57:51.534Z,100673.72
2023-03-16T22:00:20.635Z,100675.59
2023-03-16T22:02:49.038Z,100672.00
2023-03-16T22:05:29.195Z,100667.88
2023-03-16T22:07:57.925Z,100674.19
2023-03-16T22:10:27.621Z,100667.00
2023-03-16T22:12:55.185Z,100665.22
2023-03-16T22:15:24.985Z,100654.19
2023-03-16T22:17:52.823Z,100645.94
2023-03-16T22:20:21.676Z,100637.44
2023-03-16T22:22:51.264Z,100647.16
2023-03-16T22:25:19.862Z,100638.34
2023-03-16T22:27:47.467Z,100640.25
2023-03-16T22:30:18.887Z,100628.75
2023-03-16T22:32:47.762Z,100629.00
2023-03-16T22:35:23.988Z,100620.03
2023-03-16T22:37:52.770Z,100614.66
2023-03-16T22:40:20.441Z,100601.31
2023-03-16T22:42:47.745Z,100599.19
2023-03-16T22:45:18.713Z,100596.56
2023-03-16T22:47:47.751Z,100601.97
2023-03-16T22:50:16.647Z,100608.47
2023-03-16T22:52:45.004Z,100598.31
2023-03-16T22:55:16.639Z,100593.16
2023-03-16T22:57:44.042Z,100599.97
2023-03-16T23:00:14.112Z,100594.91
2023-03-16T23:02:41.660Z,100590.53
2023-03-16T23:05:22.650Z,100591.53
2023-03-16T23:07:50.604Z,100586.03
2023-03-16T23:10:19.889Z,100587.81
2023-03-16T23:12:47.688Z,100591.00
2023-03-16T23:15:16.855Z,100594.41
2023-03-16T23:17:44.276Z,100591.09
2023-03-16T23:20:19.062Z,100588.25
2023-03-16T23:22:46.482Z,100591.63
2023-03-16T23:25:13.863Z,100595.88
2023-03-16T23:27:42.656Z,100595.88
2023-03-16T23:30:16.436Z,100590.56
2023-03-16T23:32:43.810Z,100589.63
2023-03-16T23:35:14.357Z,100585.91
2023-03-16T23:37:42.128Z,100593.38
2023-03-16T23:40:10.319Z,100590.22
2023-03-16T23:42:38.318Z,100588.16
2023-03-16T23:45:09.327Z,100576.72
2023-03-16T23:47:37.362Z,100581.25
2023-03-16T23:50:06.039Z,100574.88
2023-03-16T23:52:33.375Z,100574.41
2023-03-16T23:55:01.212Z,100565.22
2023-03-16T23:57:28.526Z,100562.63
2023-03-16T23:59:56.059Z,100549.41
